SBCP/CAW METAR and TAF weather

Enter ICAO airport designator
Station Type Date Time Source
SBCP METAR 2020/09/21 21:00 UTC NOAA

SBCP 212100Z 16006KT 9999 SCT020 OVC090 24/21 Q1015


Station Type Date Time Source
SBCP Decoded METAR 2020/09/21 21:00 UTC NOAA

Campos, Brazil (SBCP) 21-45S 041-20W 11M
Sep 21, 2020 - 05:00 PM EDT / 2020.09.21 2100 UTC
Wind: from the SSE (160 degrees) at 7 MPH (6 KT):0
Visibility: greater than 7 mile(s):0
Sky conditions: overcast
Temperature: 75 F (24 C)
Dew Point: 69 F (21 C)
Relative Humidity: 83%
Pressure (altimeter): 29.97 in. Hg (1015 hPa)
ob: SBCP 212100Z 16006KT 9999 SCT020 OVC090 24/21 Q1015
cycle: 21

Station Type Date Time Source
SBCP TAF 2020/09/22 06:50 UTC NOAA

TAF SBCP 220300Z 2206/2218 14007KT 7000 BKN015 OVC025 TN21/2209Z TX25/2217Z PROB40 2209/2212 3000 RA BKN010 OVC017
BECMG 2212/2213 35010KT BKN020 BKN030
BECMG 2216/2218 18015KT
RMK PGB

Example: see airport list